AEE432 LGAV-LOWW
Flight info
| Callsign | AEE432 |
|---|---|
| Flight time | N/A |
| Altitude | 36000 |
| Route | KOR UL613 XANIS DCT DIMIS DCT EMKES DCT EDALA DCT MARIL DCT NOVLO DCT OBUTI OBUTI2W |
| Aircraft | A320/M-SDE3FGHIRWY/LB1 |
Departure
| Time | N/A |
|---|---|
| Airport | Athens Eleftherios Venizelos International Airport (LGAV) |
Arrival
| Time | 2026-04-26 11:16 |
|---|---|
| Airport | Vienna International Airport (LOWW) |
| Time | Latitude | Longitude | Altitude | Speed | Heading |
|---|---|---|---|---|---|
| 2026-04-26 09:40 | 39.27397 | 21.45312 | 36072 ft | 432 kts | 321° |
| 2026-04-26 09:40 | 39.32054 | 21.40380 | 36076 ft | 432 kts | 320° |
| 2026-04-26 09:41 | 39.36698 | 21.35435 | 36075 ft | 432 kts | 320° |
| 2026-04-26 09:41 | 39.41344 | 21.30493 | 36076 ft | 432 kts | 320° |
| 2026-04-26 09:42 | 39.45993 | 21.25557 | 36075 ft | 432 kts | 320° |
| 2026-04-26 09:42 | 39.50634 | 21.20615 | 36080 ft | 432 kts | 320° |
| 2026-04-26 09:43 | 39.55275 | 21.15648 | 36080 ft | 432 kts | 320° |
| 2026-04-26 09:43 | 39.59909 | 21.10682 | 36082 ft | 432 kts | 320° |
| 2026-04-26 09:44 | 39.64546 | 21.05710 | 36087 ft | 432 kts | 320° |
| 2026-04-26 09:44 | 39.69179 | 21.00738 | 36090 ft | 432 kts | 320° |
| 2026-04-26 09:45 | 39.73807 | 20.95758 | 36091 ft | 432 kts | 320° |
| 2026-04-26 09:45 | 39.78436 | 20.90770 | 36089 ft | 432 kts | 319° |
| 2026-04-26 09:46 | 39.83063 | 20.85765 | 36088 ft | 432 kts | 319° |
| 2026-04-26 09:46 | 39.87685 | 20.80759 | 36083 ft | 432 kts | 319° |
| 2026-04-26 09:47 | 39.92303 | 20.75742 | 36085 ft | 432 kts | 319° |
| 2026-04-26 09:47 | 39.96925 | 20.70721 | 36075 ft | 432 kts | 319° |
| 2026-04-26 09:48 | 40.01539 | 20.65699 | 36071 ft | 432 kts | 319° |
| 2026-04-26 09:48 | 40.06158 | 20.60688 | 36067 ft | 432 kts | 321° |
| 2026-04-26 09:49 | 40.11318 | 20.56672 | 36064 ft | 433 kts | 330° |
| 2026-04-26 09:49 | 40.16663 | 20.53013 | 36061 ft | 433 kts | 330° |
| 2026-04-26 09:50 | 40.22000 | 20.49347 | 36061 ft | 433 kts | 330° |
| 2026-04-26 09:50 | 40.27338 | 20.45674 | 36065 ft | 433 kts | 330° |
| 2026-04-26 09:51 | 40.32673 | 20.42002 | 36062 ft | 433 kts | 330° |
| 2026-04-26 09:51 | 40.37984 | 20.38323 | 36066 ft | 433 kts | 330° |
| 2026-04-26 09:52 | 40.43320 | 20.34621 | 36072 ft | 433 kts | 330° |
| 2026-04-26 09:52 | 40.51294 | 20.29080 | 36072 ft | 432 kts | 330° |
| 2026-04-26 09:53 | 40.56607 | 20.25387 | 36078 ft | 432 kts | 330° |
| 2026-04-26 09:53 | 40.61915 | 20.21690 | 36081 ft | 432 kts | 330° |
| 2026-04-26 09:54 | 40.67215 | 20.17990 | 36079 ft | 431 kts | 329° |
| 2026-04-26 09:54 | 40.72507 | 20.14279 | 36081 ft | 431 kts | 329° |
| 2026-04-26 09:55 | 40.77801 | 20.10565 | 36085 ft | 431 kts | 329° |
| 2026-04-26 09:55 | 40.83094 | 20.06856 | 36087 ft | 430 kts | 329° |
| 2026-04-26 09:56 | 40.88387 | 20.03134 | 36092 ft | 430 kts | 329° |
| 2026-04-26 09:56 | 40.93643 | 19.99426 | 36091 ft | 430 kts | 329° |
| 2026-04-26 09:57 | 40.98916 | 19.95697 | 36094 ft | 430 kts | 329° |
| 2026-04-26 09:57 | 41.04190 | 19.91968 | 36100 ft | 430 kts | 329° |
| 2026-04-26 09:58 | 41.09459 | 19.88232 | 36099 ft | 429 kts | 329° |
| 2026-04-26 09:58 | 41.14726 | 19.84496 | 36102 ft | 429 kts | 329° |
| 2026-04-26 09:59 | 41.19994 | 19.80751 | 36102 ft | 429 kts | 329° |
| 2026-04-26 09:59 | 41.25259 | 19.77003 | 36097 ft | 429 kts | 329° |
| 2026-04-26 10:00 | 41.30522 | 19.73248 | 36095 ft | 429 kts | 329° |
| 2026-04-26 10:00 | 41.35779 | 19.69483 | 36094 ft | 429 kts | 329° |
| 2026-04-26 10:01 | 41.41033 | 19.65716 | 36098 ft | 429 kts | 329° |
| 2026-04-26 10:01 | 41.46290 | 19.61948 | 36095 ft | 429 kts | 329° |
| 2026-04-26 10:02 | 41.51543 | 19.58172 | 36103 ft | 428 kts | 329° |
| 2026-04-26 10:02 | 41.56680 | 19.54472 | 36108 ft | 428 kts | 328° |
| 2026-04-26 10:03 | 41.61918 | 19.50689 | 36111 ft | 428 kts | 328° |
| 2026-04-26 10:03 | 41.67149 | 19.46897 | 36117 ft | 428 kts | 328° |
| 2026-04-26 10:04 | 41.72387 | 19.43110 | 36120 ft | 428 kts | 329° |
| 2026-04-26 10:04 | 41.77619 | 19.39314 | 36115 ft | 428 kts | 328° |
| 2026-04-26 10:05 | 41.82845 | 19.35517 | 36117 ft | 427 kts | 328° |
| 2026-04-26 10:05 | 41.88067 | 19.31712 | 36125 ft | 427 kts | 328° |
| 2026-04-26 10:06 | 41.93252 | 19.27926 | 36118 ft | 427 kts | 328° |
| 2026-04-26 10:06 | 41.98467 | 19.24106 | 36115 ft | 427 kts | 328° |
| 2026-04-26 10:07 | 42.03677 | 19.20287 | 36106 ft | 427 kts | 329° |
| 2026-04-26 10:07 | 42.08891 | 19.16460 | 36104 ft | 427 kts | 329° |
| 2026-04-26 10:08 | 42.14104 | 19.12624 | 36100 ft | 427 kts | 328° |
| 2026-04-26 10:08 | 42.19313 | 19.08789 | 36093 ft | 427 kts | 329° |
| 2026-04-26 10:09 | 42.23646 | 19.05591 | 36088 ft | 427 kts | 328° |
| 2026-04-26 10:09 | 42.29732 | 19.01085 | 36084 ft | 427 kts | 329° |
| 2026-04-26 10:10 | 42.34939 | 18.97223 | 36103 ft | 427 kts | 329° |
| 2026-04-26 10:10 | 42.40142 | 18.93358 | 36106 ft | 426 kts | 329° |
| 2026-04-26 10:11 | 42.45343 | 18.89490 | 36109 ft | 426 kts | 329° |
| 2026-04-26 10:11 | 42.50549 | 18.85621 | 36110 ft | 427 kts | 329° |
| 2026-04-26 10:12 | 42.55748 | 18.81747 | 36104 ft | 427 kts | 329° |
| 2026-04-26 10:12 | 42.60066 | 18.78515 | 36099 ft | 427 kts | 329° |
| 2026-04-26 10:13 | 42.65263 | 18.74619 | 36100 ft | 427 kts | 329° |
| 2026-04-26 10:13 | 42.70459 | 18.70712 | 36087 ft | 427 kts | 329° |
| 2026-04-26 10:14 | 42.75564 | 18.66863 | 36082 ft | 427 kts | 329° |
| 2026-04-26 10:14 | 42.80765 | 18.62947 | 36090 ft | 427 kts | 329° |
| 2026-04-26 10:15 | 42.85898 | 18.59080 | 36085 ft | 427 kts | 329° |
| 2026-04-26 10:15 | 42.91099 | 18.55143 | 36098 ft | 428 kts | 329° |
| 2026-04-26 10:16 | 42.96306 | 18.51197 | 36097 ft | 428 kts | 329° |
| 2026-04-26 10:16 | 43.01516 | 18.47242 | 36100 ft | 429 kts | 329° |
| 2026-04-26 10:17 | 43.06728 | 18.43274 | 36092 ft | 429 kts | 329° |
| 2026-04-26 10:17 | 43.11938 | 18.39295 | 36094 ft | 429 kts | 329° |
| 2026-04-26 10:18 | 43.17145 | 18.35306 | 36110 ft | 429 kts | 329° |
| 2026-04-26 10:18 | 43.22362 | 18.31307 | 36107 ft | 429 kts | 329° |
| 2026-04-26 10:19 | 43.27573 | 18.27308 | 36110 ft | 430 kts | 329° |
| 2026-04-26 10:19 | 43.32789 | 18.23300 | 36106 ft | 430 kts | 329° |
| 2026-04-26 10:20 | 43.38010 | 18.19287 | 36115 ft | 430 kts | 329° |
| 2026-04-26 10:20 | 43.43088 | 18.15367 | 36108 ft | 430 kts | 329° |
| 2026-04-26 10:21 | 43.48315 | 18.11327 | 36122 ft | 430 kts | 329° |
| 2026-04-26 10:21 | 43.53536 | 18.07281 | 36121 ft | 431 kts | 329° |
| 2026-04-26 10:22 | 43.58756 | 18.03233 | 36139 ft | 431 kts | 329° |
| 2026-04-26 10:22 | 43.63973 | 17.99175 | 36131 ft | 431 kts | 329° |
| 2026-04-26 10:23 | 43.69197 | 17.95108 | 36142 ft | 431 kts | 329° |
| 2026-04-26 10:23 | 43.74413 | 17.91038 | 36144 ft | 430 kts | 329° |
| 2026-04-26 10:24 | 43.79619 | 17.86949 | 36142 ft | 431 kts | 329° |
| 2026-04-26 10:24 | 43.84788 | 17.82765 | 36143 ft | 430 kts | 327° |
| 2026-04-26 10:25 | 43.89864 | 17.78259 | 36142 ft | 430 kts | 326° |
| 2026-04-26 10:25 | 43.94861 | 17.73732 | 36141 ft | 430 kts | 326° |
| 2026-04-26 10:26 | 43.99868 | 17.69260 | 36145 ft | 430 kts | 326° |
| 2026-04-26 10:26 | 44.04751 | 17.64946 | 36141 ft | 430 kts | 327° |
| 2026-04-26 10:27 | 44.09777 | 17.60504 | 36143 ft | 430 kts | 326° |
| 2026-04-26 10:27 | 44.14825 | 17.56009 | 36146 ft | 430 kts | 326° |
| 2026-04-26 10:28 | 44.19866 | 17.51504 | 36148 ft | 430 kts | 326° |
| 2026-04-26 10:28 | 44.25300 | 17.48059 | 36154 ft | 432 kts | 343° |
| 2026-04-26 10:29 | 44.31106 | 17.45838 | 36149 ft | 432 kts | 343° |
| 2026-04-26 10:29 | 44.36900 | 17.43600 | 36148 ft | 432 kts | 343° |
| 2026-04-26 10:30 | 44.42699 | 17.41356 | 36151 ft | 432 kts | 343° |
| 2026-04-26 10:30 | 44.48500 | 17.39111 | 36148 ft | 432 kts | 343° |
| 2026-04-26 10:31 | 44.54290 | 17.36863 | 36153 ft | 432 kts | 343° |
| 2026-04-26 10:31 | 44.60079 | 17.34609 | 36151 ft | 432 kts | 343° |
| 2026-04-26 10:32 | 44.65739 | 17.31828 | 36156 ft | 430 kts | 334° |
| 2026-04-26 10:32 | 44.71191 | 17.28371 | 36149 ft | 430 kts | 334° |
| 2026-04-26 10:33 | 44.76652 | 17.24910 | 36147 ft | 430 kts | 334° |
| 2026-04-26 10:33 | 44.82114 | 17.21454 | 36148 ft | 430 kts | 334° |
| 2026-04-26 10:34 | 44.87567 | 17.17987 | 36152 ft | 430 kts | 334° |
| 2026-04-26 10:34 | 44.92918 | 17.14577 | 36147 ft | 430 kts | 334° |
| 2026-04-26 10:35 | 44.98374 | 17.11098 | 36154 ft | 430 kts | 334° |
| 2026-04-26 10:35 | 45.03827 | 17.07609 | 36152 ft | 430 kts | 334° |
| 2026-04-26 10:36 | 45.09274 | 17.04114 | 36151 ft | 430 kts | 334° |
| 2026-04-26 10:36 | 45.14721 | 17.00604 | 36158 ft | 430 kts | 334° |
| 2026-04-26 10:37 | 45.20160 | 16.97107 | 36156 ft | 430 kts | 334° |
| 2026-04-26 10:37 | 45.25631 | 16.93644 | 36157 ft | 432 kts | 335° |
| 2026-04-26 10:38 | 45.28433 | 16.91986 | 36005 ft | 442 kts | 336° |
| 2026-04-26 10:38 | 45.31300 | 16.90349 | 35751 ft | 446 kts | 336° |
| 2026-04-26 10:38 | 45.34199 | 16.88721 | 35502 ft | 450 kts | 336° |
| 2026-04-26 10:38 | 45.37109 | 16.87080 | 35318 ft | 451 kts | 336° |
| 2026-04-26 10:39 | 45.40025 | 16.85418 | 35163 ft | 452 kts | 336° |
| 2026-04-26 10:39 | 45.42947 | 16.83734 | 35038 ft | 452 kts | 336° |
| 2026-04-26 10:39 | 45.48746 | 16.80338 | 34956 ft | 449 kts | 335° |
| 2026-04-26 10:40 | 45.54440 | 16.76990 | 34829 ft | 429 kts | 335° |
| 2026-04-26 10:40 | 45.57138 | 16.75415 | 34587 ft | 411 kts | 335° |
| 2026-04-26 10:40 | 45.59747 | 16.73891 | 34350 ft | 403 kts | 335° |
| 2026-04-26 10:41 | 45.62336 | 16.72376 | 33925 ft | 401 kts | 335° |
| 2026-04-26 10:41 | 45.64916 | 16.70866 | 33459 ft | 399 kts | 335° |
| 2026-04-26 10:41 | 45.67479 | 16.69366 | 32999 ft | 397 kts | 335° |
| 2026-04-26 10:41 | 45.70031 | 16.67867 | 32697 ft | 396 kts | 335° |
| 2026-04-26 10:42 | 45.72577 | 16.66369 | 32395 ft | 398 kts | 336° |
| 2026-04-26 10:42 | 45.74330 | 16.65333 | 32079 ft | 408 kts | 336° |
| 2026-04-26 10:42 | 45.77911 | 16.63211 | 30701 ft | 425 kts | 336° |
| 2026-04-26 10:42 | 45.80641 | 16.61591 | 29508 ft | 436 kts | 336° |
| 2026-04-26 10:43 | 45.83519 | 16.59884 | 28148 ft | 447 kts | 336° |
| 2026-04-26 10:43 | 45.86421 | 16.58160 | 27093 ft | 453 kts | 336° |
| 2026-04-26 10:43 | 45.89327 | 16.56433 | 26317 ft | 450 kts | 336° |
| 2026-04-26 10:43 | 45.92206 | 16.54723 | 25600 ft | 447 kts | 336° |
| 2026-04-26 10:44 | 45.95066 | 16.53024 | 24944 ft | 442 kts | 336° |
| 2026-04-26 10:44 | 45.96946 | 16.51908 | 24508 ft | 439 kts | 336° |
| 2026-04-26 10:44 | 46.00506 | 16.49797 | 23710 ft | 433 kts | 336° |
| 2026-04-26 10:44 | 46.03280 | 16.48150 | 22976 ft | 429 kts | 336° |
| 2026-04-26 10:45 | 46.06025 | 16.46513 | 22257 ft | 425 kts | 336° |
| 2026-04-26 10:45 | 46.08740 | 16.44886 | 21566 ft | 420 kts | 336° |
| 2026-04-26 10:45 | 46.11431 | 16.43274 | 20894 ft | 416 kts | 336° |
| 2026-04-26 10:45 | 46.14085 | 16.41689 | 20225 ft | 412 kts | 336° |
| 2026-04-26 10:46 | 46.16728 | 16.40113 | 19580 ft | 409 kts | 336° |
| 2026-04-26 10:46 | 46.19341 | 16.38547 | 18965 ft | 405 kts | 336° |
| 2026-04-26 10:46 | 46.21931 | 16.36988 | 18353 ft | 401 kts | 336° |
| 2026-04-26 10:46 | 46.23661 | 16.35945 | 17903 ft | 399 kts | 336° |
| 2026-04-26 10:47 | 46.26210 | 16.34408 | 17281 ft | 395 kts | 336° |
| 2026-04-26 10:47 | 46.28736 | 16.32887 | 16692 ft | 391 kts | 336° |
| 2026-04-26 10:47 | 46.31238 | 16.31382 | 16107 ft | 387 kts | 336° |
| 2026-04-26 10:47 | 46.33715 | 16.29894 | 15515 ft | 384 kts | 336° |
| 2026-04-26 10:48 | 46.36171 | 16.28420 | 14949 ft | 381 kts | 337° |
| 2026-04-26 10:48 | 46.38681 | 16.27246 | 14382 ft | 378 kts | 346° |
| 2026-04-26 10:48 | 46.41264 | 16.26587 | 13800 ft | 375 kts | 349° |
| 2026-04-26 10:48 | 46.43830 | 16.25984 | 13166 ft | 372 kts | 349° |
| 2026-04-26 10:49 | 46.46359 | 16.25391 | 12842 ft | 361 kts | 349° |
| 2026-04-26 10:49 | 46.48779 | 16.24821 | 13075 ft | 350 kts | 349° |
| 2026-04-26 10:49 | 46.51190 | 16.24251 | 13160 ft | 351 kts | 349° |
| 2026-04-26 10:49 | 46.53600 | 16.23681 | 13157 ft | 351 kts | 349° |
| 2026-04-26 10:50 | 46.56007 | 16.23108 | 13156 ft | 350 kts | 349° |
| 2026-04-26 10:50 | 46.58408 | 16.22537 | 13159 ft | 345 kts | 349° |
| 2026-04-26 10:50 | 46.60723 | 16.21988 | 13156 ft | 331 kts | 349° |
| 2026-04-26 10:50 | 46.62991 | 16.21450 | 13159 ft | 329 kts | 349° |
| 2026-04-26 10:51 | 46.65252 | 16.20914 | 13161 ft | 329 kts | 349° |
| 2026-04-26 10:51 | 46.69752 | 16.19844 | 13158 ft | 327 kts | 349° |
| 2026-04-26 10:51 | 46.72001 | 16.19309 | 13155 ft | 327 kts | 349° |
| 2026-04-26 10:52 | 46.74248 | 16.18771 | 13159 ft | 327 kts | 349° |
| 2026-04-26 10:52 | 46.76489 | 16.18231 | 13157 ft | 327 kts | 349° |
| 2026-04-26 10:52 | 46.78735 | 16.17692 | 13148 ft | 327 kts | 349° |
| 2026-04-26 10:52 | 46.80981 | 16.17153 | 13148 ft | 328 kts | 349° |
| 2026-04-26 10:53 | 46.83236 | 16.16611 | 13154 ft | 328 kts | 349° |
| 2026-04-26 10:53 | 46.85487 | 16.16070 | 13156 ft | 328 kts | 349° |
| 2026-04-26 10:53 | 46.87737 | 16.15533 | 13216 ft | 329 kts | 349° |
| 2026-04-26 10:54 | 46.92244 | 16.14450 | 13160 ft | 327 kts | 349° |
| 2026-04-26 10:54 | 46.94492 | 16.13906 | 13094 ft | 328 kts | 349° |
| 2026-04-26 10:54 | 46.96741 | 16.13364 | 12964 ft | 327 kts | 349° |
| 2026-04-26 10:54 | 46.98954 | 16.12833 | 12825 ft | 317 kts | 349° |
| 2026-04-26 10:55 | 47.01098 | 16.12319 | 12697 ft | 309 kts | 349° |
| 2026-04-26 10:55 | 47.03186 | 16.11819 | 12568 ft | 309 kts | 348° |
| 2026-04-26 10:55 | 47.05300 | 16.11309 | 12427 ft | 306 kts | 349° |
| 2026-04-26 10:55 | 47.07400 | 16.10798 | 12306 ft | 306 kts | 349° |
| 2026-04-26 10:56 | 47.09496 | 16.10289 | 12177 ft | 305 kts | 348° |
| 2026-04-26 10:56 | 47.11591 | 16.09782 | 12050 ft | 305 kts | 349° |
| 2026-04-26 10:56 | 47.13680 | 16.09273 | 11922 ft | 304 kts | 349° |
| 2026-04-26 10:56 | 47.15770 | 16.08759 | 11798 ft | 304 kts | 348° |
| 2026-04-26 10:57 | 47.17850 | 16.08252 | 11671 ft | 303 kts | 349° |
| 2026-04-26 10:57 | 47.19928 | 16.07750 | 11543 ft | 302 kts | 349° |
| 2026-04-26 10:57 | 47.22000 | 16.07249 | 11428 ft | 302 kts | 349° |
| 2026-04-26 10:57 | 47.24073 | 16.06745 | 11299 ft | 301 kts | 349° |
| 2026-04-26 10:58 | 47.26139 | 16.06242 | 11185 ft | 301 kts | 349° |
| 2026-04-26 10:58 | 47.28200 | 16.05740 | 11046 ft | 300 kts | 349° |
| 2026-04-26 10:58 | 47.30232 | 16.05246 | 10937 ft | 293 kts | 349° |
| 2026-04-26 10:58 | 47.32239 | 16.04756 | 10816 ft | 291 kts | 349° |
| 2026-04-26 10:59 | 47.34237 | 16.04319 | 10697 ft | 290 kts | 353° |
| 2026-04-26 10:59 | 47.36253 | 16.04230 | 10581 ft | 290 kts | 0° |
| 2026-04-26 10:59 | 47.38265 | 16.04542 | 10454 ft | 291 kts | 8° |
| 2026-04-26 10:59 | 47.40238 | 16.05248 | 10343 ft | 292 kts | 15° |
| 2026-04-26 11:00 | 47.42165 | 16.06210 | 10226 ft | 292 kts | 16° |
| 2026-04-26 11:00 | 47.44089 | 16.07168 | 10104 ft | 291 kts | 16° |
| 2026-04-26 11:00 | 47.46004 | 16.08115 | 9978 ft | 290 kts | 15° |
| 2026-04-26 11:00 | 47.47911 | 16.09073 | 9847 ft | 290 kts | 19° |
| 2026-04-26 11:01 | 47.49617 | 16.10664 | 9671 ft | 291 kts | 41° |
| 2026-04-26 11:01 | 47.50833 | 16.13062 | 9417 ft | 293 kts | 54° |
| 2026-04-26 11:01 | 47.51895 | 16.15574 | 9183 ft | 291 kts | 55° |
| 2026-04-26 11:01 | 47.52969 | 16.18143 | 8910 ft | 289 kts | 55° |
| 2026-04-26 11:02 | 47.54019 | 16.20664 | 8656 ft | 286 kts | 55° |
| 2026-04-26 11:02 | 47.55059 | 16.23154 | 8455 ft | 283 kts | 54° |
| 2026-04-26 11:02 | 47.56075 | 16.25582 | 8248 ft | 279 kts | 55° |
| 2026-04-26 11:02 | 47.57096 | 16.28023 | 8059 ft | 278 kts | 55° |
| 2026-04-26 11:03 | 47.57962 | 16.30098 | 7867 ft | 276 kts | 56° |
| 2026-04-26 11:03 | 47.58933 | 16.32532 | 7634 ft | 273 kts | 55° |
| 2026-04-26 11:03 | 47.59924 | 16.34912 | 7429 ft | 270 kts | 54° |
| 2026-04-26 11:03 | 47.60911 | 16.37251 | 7206 ft | 267 kts | 54° |
| 2026-04-26 11:04 | 47.61914 | 16.39603 | 6970 ft | 266 kts | 52° |
| 2026-04-26 11:04 | 47.62922 | 16.41848 | 6758 ft | 264 kts | 52° |
| 2026-04-26 11:04 | 47.63951 | 16.44094 | 6544 ft | 262 kts | 52° |
| 2026-04-26 11:04 | 47.64984 | 16.46347 | 6296 ft | 259 kts | 52° |
| 2026-04-26 11:05 | 47.65974 | 16.48520 | 6078 ft | 257 kts | 52° |
| 2026-04-26 11:05 | 47.66981 | 16.50736 | 5837 ft | 255 kts | 52° |
| 2026-04-26 11:05 | 47.67962 | 16.52910 | 5607 ft | 250 kts | 53° |
| 2026-04-26 11:05 | 47.68921 | 16.55040 | 5390 ft | 249 kts | 52° |
| 2026-04-26 11:06 | 47.69879 | 16.57172 | 5170 ft | 247 kts | 52° |
| 2026-04-26 11:06 | 47.70827 | 16.59285 | 4945 ft | 245 kts | 52° |
| 2026-04-26 11:06 | 47.71767 | 16.61375 | 4719 ft | 242 kts | 52° |
| 2026-04-26 11:06 | 47.72698 | 16.63442 | 4558 ft | 239 kts | 52° |
| 2026-04-26 11:07 | 47.73306 | 16.64796 | 4488 ft | 237 kts | 52° |
| 2026-04-26 11:07 | 47.74297 | 16.67008 | 4350 ft | 233 kts | 52° |
| 2026-04-26 11:07 | 47.75189 | 16.68998 | 4223 ft | 230 kts | 50° |
| 2026-04-26 11:07 | 47.76308 | 16.70600 | 4101 ft | 218 kts | 27° |
| 2026-04-26 11:08 | 47.77644 | 16.71446 | 4004 ft | 203 kts | 7° |
| 2026-04-26 11:08 | 47.78961 | 16.71579 | 4003 ft | 182 kts | 350° |
| 2026-04-26 11:08 | 47.80184 | 16.71170 | 3992 ft | 179 kts | 340° |
| 2026-04-26 11:08 | 47.81366 | 16.70679 | 3995 ft | 179 kts | 340° |
| 2026-04-26 11:09 | 47.82564 | 16.70180 | 3992 ft | 179 kts | 340° |
| 2026-04-26 11:09 | 47.83779 | 16.69671 | 4014 ft | 186 kts | 340° |
| 2026-04-26 11:09 | 47.85039 | 16.69145 | 4001 ft | 189 kts | 340° |
| 2026-04-26 11:09 | 47.86309 | 16.68614 | 3997 ft | 189 kts | 340° |
| 2026-04-26 11:10 | 47.87574 | 16.68084 | 4005 ft | 189 kts | 341° |
| 2026-04-26 11:10 | 47.88844 | 16.67553 | 4000 ft | 189 kts | 341° |
| 2026-04-26 11:10 | 47.90118 | 16.67020 | 4001 ft | 190 kts | 341° |
| 2026-04-26 11:10 | 47.91389 | 16.66487 | 4016 ft | 190 kts | 340° |
| 2026-04-26 11:11 | 47.92657 | 16.65955 | 3978 ft | 190 kts | 340° |
| 2026-04-26 11:11 | 47.93919 | 16.65426 | 3784 ft | 184 kts | 341° |
| 2026-04-26 11:11 | 47.95111 | 16.64928 | 3582 ft | 171 kts | 341° |
| 2026-04-26 11:11 | 47.96203 | 16.64470 | 3366 ft | 156 kts | 340° |
| 2026-04-26 11:12 | 47.97218 | 16.64043 | 3159 ft | 148 kts | 340° |
| 2026-04-26 11:12 | 47.98112 | 16.63665 | 2982 ft | 146 kts | 340° |
| 2026-04-26 11:12 | 47.99097 | 16.63250 | 2813 ft | 145 kts | 341° |
| 2026-04-26 11:12 | 48.00041 | 16.62855 | 2604 ft | 137 kts | 340° |
| 2026-04-26 11:13 | 48.00962 | 16.62466 | 2429 ft | 139 kts | 340° |
| 2026-04-26 11:13 | 48.01896 | 16.62072 | 2246 ft | 139 kts | 340° |
| 2026-04-26 11:13 | 48.02820 | 16.61684 | 2054 ft | 138 kts | 339° |
| 2026-04-26 11:13 | 48.03737 | 16.61297 | 1876 ft | 135 kts | 340° |
| 2026-04-26 11:14 | 48.04633 | 16.60919 | 1642 ft | 135 kts | 341° |
| 2026-04-26 11:14 | 48.05527 | 16.60542 | 1411 ft | 132 kts | 343° |
| 2026-04-26 11:14 | 48.06401 | 16.60174 | 1193 ft | 129 kts | 343° |
| 2026-04-26 11:14 | 48.06978 | 16.59930 | 1053 ft | 127 kts | 343° |
| 2026-04-26 11:15 | 48.08100 | 16.59457 | 796 ft | 126 kts | 345° |
| 2026-04-26 11:15 | 48.08938 | 16.59099 | 659 ft | 125 kts | 345° |
| 2026-04-26 11:15 | 48.09700 | 16.58780 | 618 ft | 103 kts | 344° |
| 2026-04-26 11:15 | 48.10226 | 16.58561 | 610 ft | 54 kts | 344° |
| 2026-04-26 11:16 | 48.10477 | 16.58455 | 615 ft | 32 kts | 344° |
| 2026-04-26 11:16 | 48.10644 | 16.58369 | 614 ft | 20 kts | 332° |
| 2026-04-26 11:16 | 48.10750 | 16.58246 | 614 ft | 19 kts | 314° |
| 2026-04-26 11:16 | 48.10820 | 16.58143 | 622 ft | 11 kts | 315° |
| 2026-04-26 11:17 | 48.10843 | 16.58109 | 615 ft | 0 kts | 315° |
| 2026-04-26 11:18 | 48.10848 | 16.58101 | 612 ft | 3 kts | 315° |
| 2026-04-26 11:18 | 48.10869 | 16.58069 | 616 ft | 6 kts | 315° |
| 2026-04-26 11:18 | 48.10906 | 16.58016 | 614 ft | 9 kts | 316° |
| 2026-04-26 11:18 | 48.10962 | 16.57959 | 618 ft | 11 kts | 342° |
| 2026-04-26 11:19 | 48.11019 | 16.57939 | 610 ft | 0 kts | 347° |
| 2026-04-26 11:19 | 48.11019 | 16.57938 | 610 ft | 1 kts | 347° |
| 2026-04-26 11:19 | 48.11036 | 16.57933 | 617 ft | 4 kts | 347° |
| 2026-04-26 11:19 | 48.11070 | 16.57920 | 615 ft | 7 kts | 343° |
| 2026-04-26 11:20 | 48.11122 | 16.57893 | 616 ft | 9 kts | 347° |
| 2026-04-26 11:20 | 48.11168 | 16.57878 | 610 ft | 11 kts | 347° |
| 2026-04-26 11:20 | 48.11284 | 16.57833 | 615 ft | 14 kts | 344° |
| 2026-04-26 11:20 | 48.11388 | 16.57790 | 626 ft | 17 kts | 345° |
| 2026-04-26 11:21 | 48.11472 | 16.57754 | 621 ft | 6 kts | 341° |
| 2026-04-26 11:21 | 48.11502 | 16.57696 | 618 ft | 9 kts | 293° |
| 2026-04-26 11:21 | 48.11529 | 16.57603 | 610 ft | 10 kts | 294° |
| 2026-04-26 11:21 | 48.11564 | 16.57496 | 616 ft | 13 kts | 296° |
| 2026-04-26 11:22 | 48.11612 | 16.57414 | 618 ft | 11 kts | 349° |
| 2026-04-26 11:22 | 48.11693 | 16.57395 | 619 ft | 13 kts | 347° |
| 2026-04-26 11:22 | 48.11785 | 16.57353 | 613 ft | 15 kts | 330° |
| 2026-04-26 11:22 | 48.11837 | 16.57257 | 610 ft | 8 kts | 297° |
| 2026-04-26 11:23 | 48.11852 | 16.57201 | 616 ft | 5 kts | 284° |
| 2026-04-26 11:23 | 48.11854 | 16.57157 | 610 ft | 5 kts | 272° |
| 2026-04-26 11:23 | 48.11866 | 16.57098 | 616 ft | 7 kts | 297° |
| 2026-04-26 11:23 | 48.11875 | 16.57071 | 610 ft | 1 kts | 297° |
| 2026-04-26 11:24 | 48.11881 | 16.57052 | 622 ft | 3 kts | 297° |
| 2026-04-26 11:24 | 48.11873 | 16.57020 | 615 ft | 4 kts | 224° |
| 2026-04-26 11:24 | 48.11846 | 16.56999 | 613 ft | 5 kts | 204° |
| 2026-04-26 11:24 | 48.11826 | 16.56985 | 619 ft | 0 kts | 206° |